createdAt,value
2022-08-04T00:00:52.580Z,0.10
2022-08-04T00:01:52.597Z,0.00
2022-08-04T00:02:52.543Z,0.00
2022-08-04T00:03:53.146Z,0.10
2022-08-04T00:04:52.519Z,0.20
2022-08-04T00:05:52.527Z,0.10
2022-08-04T00:06:52.500Z,0.00
2022-08-04T00:07:52.486Z,0.00
2022-08-04T00:08:53.797Z,0.10
2022-08-04T00:09:52.463Z,0.10
2022-08-04T00:10:52.468Z,0.10
2022-08-04T00:11:52.446Z,0.10
2022-08-04T00:12:52.436Z,0.10
2022-08-04T00:13:52.673Z,0.10
2022-08-04T00:14:53.441Z,0.10
2022-08-04T00:15:52.417Z,0.10
2022-08-04T00:16:52.394Z,0.10
2022-08-04T00:17:52.375Z,0.20
2022-08-04T00:18:52.367Z,0.20
2022-08-04T00:19:52.370Z,0.20
2022-08-04T00:20:52.391Z,0.20
2022-08-04T00:21:52.328Z,0.30
2022-08-04T00:22:52.319Z,0.20
2022-08-04T00:24:12.030Z,0.10
2022-08-04T00:24:53.450Z,0.20
2022-08-04T00:25:52.286Z,0.20
2022-08-04T00:26:52.283Z,0.20
2022-08-04T00:27:52.266Z,0.30
2022-08-04T00:28:52.293Z,0.20
2022-08-04T00:29:53.162Z,0.20
2022-08-04T00:30:52.235Z,0.30
2022-08-04T00:31:54.744Z,0.30
2022-08-04T00:32:52.215Z,0.30
2022-08-04T00:33:52.249Z,0.40
2022-08-04T00:34:52.567Z,0.30
2022-08-04T00:35:52.176Z,0.30
2022-08-04T00:36:52.164Z,0.40
2022-08-04T00:37:52.158Z,0.30
2022-08-04T00:38:52.186Z,0.30
2022-08-04T00:39:52.132Z,0.20
2022-08-04T00:40:52.122Z,0.30
2022-08-04T00:41:57.017Z,0.30
2022-08-04T00:42:58.666Z,0.30
2022-08-04T00:43:53.105Z,0.30
2022-08-04T00:44:52.076Z,0.30
2022-08-04T00:46:10.930Z,0.30
2022-08-04T00:46:53.099Z,0.30
2022-08-04T00:47:52.061Z,0.30
2022-08-04T00:48:52.696Z,0.40
2022-08-04T00:49:52.038Z,0.40
2022-08-04T00:50:52.012Z,0.50
2022-08-04T00:52:31.689Z,0.40
2022-08-04T00:52:52.990Z,0.40
2022-08-04T00:53:52.003Z,0.40
2022-08-04T00:54:51.967Z,0.40
2022-08-04T00:55:51.957Z,0.40
2022-08-04T00:56:51.944Z,0.20
2022-08-04T00:57:51.946Z,0.00
2022-08-04T00:58:51.948Z,0.10
2022-08-04T00:59:51.908Z,0.00
2022-08-04T01:00:51.905Z,0.00
2022-08-04T01:01:51.948Z,0.10
2022-08-04T01:02:51.877Z,0.00
2022-08-04T01:03:51.864Z,0.10
2022-08-04T01:04:51.873Z,0.20
2022-08-04T01:05:51.849Z,0.00
2022-08-04T01:06:56.291Z,0.10
2022-08-04T01:07:51.822Z,0.00
2022-08-04T01:08:51.829Z,0.00
2022-08-04T01:09:51.853Z,0.00
2022-08-04T01:10:51.791Z,0.00
2022-08-04T01:11:56.316Z,0.00
2022-08-04T01:12:52.767Z,0.00
2022-08-04T01:13:51.759Z,0.00
2022-08-04T01:14:51.763Z,0.30
2022-08-04T01:15:56.431Z,0.10
2022-08-04T01:16:52.727Z,0.10
2022-08-04T01:17:51.732Z,0.00
2022-08-04T01:18:51.703Z,0.00
2022-08-04T01:19:51.695Z,0.00
2022-08-04T01:20:52.211Z,0.00
2022-08-04T01:21:51.670Z,0.00
2022-08-04T01:22:51.659Z,0.10
2022-08-04T01:23:51.659Z,0.00
2022-08-04T01:24:52.471Z,0.10
2022-08-04T01:25:51.624Z,0.10
2022-08-04T01:26:53.707Z,0.00
2022-08-04T01:27:52.601Z,0.00
2022-08-04T01:28:51.612Z,0.00
2022-08-04T01:29:51.580Z,0.00
2022-08-04T01:30:51.610Z,0.00
2022-08-04T01:31:51.558Z,0.20
2022-08-04T01:32:51.551Z,0.10
2022-08-04T01:34:03.656Z,0.10
2022-08-04T01:34:52.545Z,0.10
2022-08-04T01:35:51.512Z,0.00
2022-08-04T01:36:51.540Z,0.10
2022-08-04T01:37:51.493Z,0.00
2022-08-04T01:38:51.541Z,0.00
2022-08-04T01:39:51.500Z,0.10
2022-08-04T01:40:51.458Z,0.20
2022-08-04T01:41:58.018Z,0.00
2022-08-04T01:42:52.438Z,0.10
2022-08-04T01:43:51.426Z,0.00
2022-08-04T01:44:51.413Z,0.00
2022-08-04T01:45:51.401Z,0.00
2022-08-04T01:46:51.393Z,0.00
2022-08-04T01:47:51.411Z,0.00
2022-08-04T01:48:51.377Z,0.00
2022-08-04T01:49:51.364Z,0.10
2022-08-04T01:50:52.812Z,0.10
2022-08-04T01:51:51.349Z,0.00
2022-08-04T01:52:51.498Z,0.10
2022-08-04T01:53:51.312Z,0.00
2022-08-04T01:54:51.526Z,0.60
2022-08-04T01:55:55.136Z,0.10
2022-08-04T01:56:51.298Z,0.10
2022-08-04T01:57:51.340Z,0.00
2022-08-04T01:58:51.502Z,0.00
2022-08-04T01:59:52.220Z,0.10
2022-08-04T02:00:56.283Z,0.10
2022-08-04T02:01:52.353Z,0.00
2022-08-04T02:02:51.382Z,0.00
2022-08-04T02:04:21.079Z,0.00
2022-08-04T02:04:52.192Z,0.00
2022-08-04T02:06:03.446Z,0.00
2022-08-04T02:06:52.215Z,0.00
2022-08-04T02:07:51.160Z,0.00
2022-08-04T02:08:51.150Z,0.10
2022-08-04T02:09:54.213Z,0.00
2022-08-04T02:10:51.137Z,0.00
2022-08-04T02:11:51.139Z,0.00
2022-08-04T02:12:51.124Z,0.00
2022-08-04T02:13:51.131Z,0.10
2022-08-04T02:14:58.763Z,0.20
2022-08-04T02:15:51.169Z,1.40
2022-08-04T02:16:52.393Z,0.20
2022-08-04T02:17:51.404Z,0.00
2022-08-04T02:18:51.046Z,0.10
2022-08-04T02:19:51.050Z,0.10
2022-08-04T02:20:51.027Z,0.10
2022-08-04T02:21:51.013Z,0.10
2022-08-04T02:22:51.043Z,0.10
2022-08-04T02:23:50.990Z,0.20
2022-08-04T02:24:50.979Z,0.00
2022-08-04T02:25:50.963Z,0.10
2022-08-04T02:26:50.953Z,0.10
2022-08-04T02:27:59.233Z,0.10
2022-08-04T02:28:51.978Z,0.00
2022-08-04T02:29:50.917Z,0.10
2022-08-04T02:30:50.908Z,0.10
2022-08-04T02:31:51.760Z,0.00
2022-08-04T02:32:50.886Z,0.00
2022-08-04T02:33:50.874Z,0.10
2022-08-04T02:34:51.767Z,0.00
2022-08-04T02:35:50.879Z,0.10
2022-08-04T02:36:50.848Z,0.10
2022-08-04T02:37:50.824Z,0.00
2022-08-04T02:38:50.876Z,0.00
2022-08-04T02:39:50.867Z,0.10
2022-08-04T02:40:50.792Z,0.20
2022-08-04T02:41:50.785Z,0.10
2022-08-04T02:42:50.811Z,0.10
2022-08-04T02:43:52.860Z,0.00
2022-08-04T02:44:50.748Z,0.10
2022-08-04T02:45:50.904Z,0.00
2022-08-04T02:46:50.730Z,0.10
2022-08-04T02:48:20.283Z,0.10
2022-08-04T02:48:51.719Z,0.00
2022-08-04T02:49:50.731Z,0.00
2022-08-04T02:50:50.684Z,0.10
2022-08-04T02:51:50.836Z,0.00
2022-08-04T02:52:50.656Z,0.00
2022-08-04T02:53:50.646Z,0.10
2022-08-04T02:54:50.642Z,0.00
2022-08-04T02:55:52.271Z,0.10
2022-08-04T02:56:51.641Z,0.10
2022-08-04T02:57:50.599Z,0.10
2022-08-04T02:58:50.597Z,0.10
2022-08-04T02:59:50.582Z,0.00
2022-08-04T03:00:50.874Z,0.10
2022-08-04T03:01:57.198Z,0.10
2022-08-04T03:02:51.543Z,0.10
2022-08-04T03:03:50.530Z,0.20
2022-08-04T03:04:50.525Z,0.10
2022-08-04T03:06:01.211Z,0.00
2022-08-04T03:06:51.498Z,0.00
2022-08-04T03:07:50.489Z,0.20
2022-08-04T03:08:50.480Z,0.20
2022-08-04T03:09:50.483Z,0.10
2022-08-04T03:10:50.455Z,0.10
2022-08-04T03:11:50.460Z,0.10
2022-08-04T03:12:50.429Z,0.00
2022-08-04T03:13:50.435Z,0.00
2022-08-04T03:14:50.433Z,0.00
2022-08-04T03:15:50.422Z,0.00
2022-08-04T03:16:50.394Z,0.10
2022-08-04T03:17:53.000Z,0.10
2022-08-04T03:18:50.382Z,0.00
2022-08-04T03:19:50.391Z,0.10
2022-08-04T03:20:50.350Z,0.00
2022-08-04T03:21:50.524Z,0.10
2022-08-04T03:23:12.173Z,0.10
2022-08-04T03:23:51.300Z,0.00
2022-08-04T03:24:50.300Z,0.10
2022-08-04T03:25:57.321Z,0.10
2022-08-04T03:26:51.299Z,0.00
2022-08-04T03:27:50.263Z,0.00
2022-08-04T03:28:50.264Z,0.20
2022-08-04T03:29:50.239Z,0.10
2022-08-04T03:30:50.225Z,0.10
2022-08-04T03:31:50.222Z,0.10
2022-08-04T03:32:50.339Z,0.00
2022-08-04T03:33:50.192Z,0.00
2022-08-04T03:34:50.186Z,0.00
2022-08-04T03:35:50.176Z,0.40
2022-08-04T03:36:50.175Z,0.40
2022-08-04T03:37:50.167Z,0.50
2022-08-04T03:38:55.618Z,0.40
2022-08-04T03:39:51.122Z,0.40
2022-08-04T03:40:50.135Z,0.40
2022-08-04T03:42:03.041Z,0.30
2022-08-04T03:42:51.156Z,0.30
2022-08-04T03:43:57.691Z,0.30
2022-08-04T03:44:51.757Z,0.30
2022-08-04T03:45:50.060Z,0.30
2022-08-04T03:46:50.061Z,0.20
2022-08-04T03:47:50.033Z,0.30
2022-08-04T03:48:50.033Z,0.30
2022-08-04T03:49:50.032Z,0.30
2022-08-04T03:50:50.030Z,0.40
2022-08-04T03:51:49.985Z,0.30
2022-08-04T03:52:49.995Z,0.20
2022-08-04T03:53:49.969Z,0.30
2022-08-04T03:54:49.954Z,0.20
2022-08-04T03:55:50.317Z,0.10
2022-08-04T03:56:49.933Z,0.20
2022-08-04T03:57:49.924Z,0.30
2022-08-04T03:58:49.922Z,0.20
2022-08-04T03:59:49.900Z,0.20
2022-08-04T04:00:49.903Z,0.20
2022-08-04T04:02:01.097Z,0.10
2022-08-04T04:02:50.939Z,0.10
2022-08-04T04:03:49.856Z,0.10
2022-08-04T04:04:49.858Z,0.10
2022-08-04T04:05:58.741Z,0.10
2022-08-04T04:06:53.853Z,0.10
2022-08-04T04:07:54.304Z,0.10
2022-08-04T04:08:50.825Z,0.10
2022-08-04T04:09:57.505Z,0.10
2022-08-04T04:10:50.785Z,0.00
2022-08-04T04:11:57.823Z,0.00
2022-08-04T04:12:51.300Z,0.00
2022-08-04T04:13:49.739Z,0.20
2022-08-04T04:14:49.800Z,0.10
2022-08-04T04:15:50.346Z,0.10
2022-08-04T04:16:49.734Z,0.10
2022-08-04T04:17:49.696Z,0.00
2022-08-04T04:18:49.689Z,0.00
2022-08-04T04:19:49.679Z,0.10
2022-08-04T04:20:49.682Z,0.10
2022-08-04T04:21:49.663Z,0.10
2022-08-04T04:22:49.711Z,0.00
2022-08-04T04:23:49.628Z,0.20
2022-08-04T04:24:49.616Z,0.10
2022-08-04T04:25:50.305Z,0.20
2022-08-04T04:26:49.606Z,0.30
2022-08-04T04:27:49.589Z,0.30
2022-08-04T04:28:49.573Z,0.20
2022-08-04T04:29:49.618Z,0.30
2022-08-04T04:30:49.566Z,0.30
2022-08-04T04:31:49.573Z,0.20
2022-08-04T04:32:49.578Z,0.30
2022-08-04T04:33:49.535Z,0.30
2022-08-04T04:34:49.502Z,0.30
2022-08-04T04:35:49.494Z,0.30
2022-08-04T04:36:49.493Z,0.30
2022-08-04T04:37:49.485Z,0.40
2022-08-04T04:38:49.455Z,0.30
2022-08-04T04:39:49.463Z,0.20
2022-08-04T04:40:49.443Z,0.30
2022-08-04T04:41:49.434Z,0.20
2022-08-04T04:42:49.774Z,0.30
2022-08-04T04:43:50.859Z,0.40
2022-08-04T04:44:49.419Z,0.30
2022-08-04T04:45:49.376Z,0.30
2022-08-04T04:46:52.308Z,0.20
2022-08-04T04:48:08.462Z,0.30
2022-08-04T04:48:50.369Z,0.30
2022-08-04T04:49:49.328Z,0.20
2022-08-04T04:50:49.319Z,0.30
2022-08-04T04:51:49.310Z,0.30
2022-08-04T04:52:49.295Z,0.30
2022-08-04T04:53:49.313Z,0.10
2022-08-04T04:54:49.285Z,0.30
2022-08-04T04:55:49.262Z,0.20
2022-08-04T04:56:49.287Z,0.20
2022-08-04T04:57:49.248Z,0.30
2022-08-04T04:58:50.268Z,0.30
2022-08-04T04:59:49.817Z,0.20
2022-08-04T05:00:49.233Z,0.10
2022-08-04T05:01:49.193Z,0.20
2022-08-04T05:02:49.186Z,0.10
2022-08-04T05:03:49.180Z,0.10
2022-08-04T05:04:49.185Z,0.20
2022-08-04T05:05:49.793Z,0.30
2022-08-04T05:06:54.525Z,0.20
2022-08-04T05:07:50.126Z,0.20
2022-08-04T05:08:53.831Z,0.10
2022-08-04T05:09:50.325Z,0.10
2022-08-04T05:10:49.098Z,0.10
2022-08-04T05:11:49.123Z,0.20
2022-08-04T05:14:33.310Z,0.20
2022-08-04T05:14:34.997Z,0.30
2022-08-04T05:14:50.066Z,0.20
2022-08-04T05:15:49.042Z,0.10
2022-08-04T05:16:49.823Z,0.20
2022-08-04T05:17:49.018Z,0.20
2022-08-04T05:18:49.026Z,0.30
2022-08-04T05:19:50.473Z,0.20
2022-08-04T05:20:48.981Z,0.30
2022-08-04T05:21:48.972Z,0.40
2022-08-04T05:22:49.018Z,0.30
2022-08-04T05:23:48.950Z,0.30
2022-08-04T05:24:48.980Z,0.30
2022-08-04T05:25:55.307Z,0.20
2022-08-04T05:26:49.950Z,0.20
2022-08-04T05:27:48.914Z,0.20
2022-08-04T05:28:48.892Z,0.20
2022-08-04T05:29:48.891Z,0.20
2022-08-04T05:30:48.913Z,0.10
2022-08-04T05:31:48.897Z,0.10
2022-08-04T05:32:48.853Z,0.20
2022-08-04T05:33:48.840Z,0.20
2022-08-04T05:34:48.843Z,0.20
2022-08-04T05:36:17.730Z,0.20
2022-08-04T05:36:49.808Z,0.30
2022-08-04T05:38:01.548Z,0.10
2022-08-04T05:38:49.782Z,0.20
2022-08-04T05:39:48.768Z,0.20
2022-08-04T05:40:48.776Z,0.10
2022-08-04T05:41:55.540Z,0.40
2022-08-04T05:42:50.333Z,0.20
2022-08-04T05:43:48.917Z,0.40
2022-08-04T05:44:51.104Z,0.20
2022-08-04T05:45:48.747Z,0.30
2022-08-04T05:46:54.049Z,0.60
2022-08-04T05:47:49.745Z,0.50
2022-08-04T05:48:48.677Z,0.50
2022-08-04T05:49:55.566Z,0.50
2022-08-04T05:50:49.665Z,0.60
2022-08-04T05:51:48.655Z,0.60
2022-08-04T05:52:49.296Z,0.60
2022-08-04T05:53:48.615Z,0.20
2022-08-04T05:54:48.611Z,0.00
2022-08-04T05:55:58.948Z,0.00
2022-08-04T05:56:49.686Z,0.20
2022-08-04T05:57:51.787Z,0.10
2022-08-04T05:58:49.565Z,0.10
2022-08-04T05:59:48.595Z,0.10
2022-08-04T06:00:52.567Z,0.00
2022-08-04T06:01:55.511Z,0.00
2022-08-04T06:02:50.338Z,0.00
2022-08-04T06:03:48.506Z,0.20
2022-08-04T06:04:48.498Z,0.00
2022-08-04T06:05:48.498Z,0.10
2022-08-04T06:06:48.488Z,1.70
2022-08-04T06:08:12.292Z,2.00
2022-08-04T06:08:49.464Z,1.60
2022-08-04T06:09:48.441Z,4.00
2022-08-04T06:10:48.432Z,0.80
2022-08-04T06:12:00.416Z,0.90
2022-08-04T06:12:49.400Z,0.60
2022-08-04T06:13:51.085Z,0.40
2022-08-04T06:14:48.393Z,2.30
2022-08-04T06:15:48.387Z,0.50
2022-08-04T06:16:51.394Z,0.30
2022-08-04T06:19:58.716Z,1.90
2022-08-04T06:19:58.856Z,0.20
2022-08-04T06:20:00.893Z,1.10
2022-08-04T06:20:50.012Z,2.30
2022-08-04T06:21:48.306Z,1.90
2022-08-04T06:22:48.359Z,0.90
2022-08-04T06:23:53.265Z,0.80
2022-08-04T06:24:49.270Z,0.80
2022-08-04T06:25:48.260Z,1.10
2022-08-04T06:26:48.267Z,1.30
2022-08-04T06:27:48.240Z,0.20
2022-08-04T06:28:48.855Z,0.10
2022-08-04T06:29:51.170Z,0.50
2022-08-04T06:30:48.216Z,0.70
2022-08-04T06:32:31.310Z,0.70
2022-08-04T06:32:49.265Z,1.20
2022-08-04T06:33:55.083Z,0.10
2022-08-04T06:34:49.816Z,0.40
2022-08-04T06:35:48.151Z,1.10
2022-08-04T06:36:48.142Z,0.90
2022-08-04T06:37:48.454Z,1.50
2022-08-04T06:38:48.122Z,1.40
2022-08-04T06:39:49.118Z,0.20
2022-08-04T06:40:48.098Z,0.90
2022-08-04T06:42:01.887Z,1.00
2022-08-04T06:42:49.107Z,1.00
2022-08-04T06:43:49.183Z,1.20
2022-08-04T06:44:48.053Z,1.30
2022-08-04T06:45:48.309Z,0.90
2022-08-04T06:46:48.046Z,1.00
2022-08-04T06:47:48.025Z,1.70
2022-08-04T06:48:48.013Z,0.70
2022-08-04T06:51:24.794Z,0.90
2022-08-04T06:51:25.117Z,0.60
2022-08-04T06:51:49.978Z,0.80
2022-08-04T06:52:47.969Z,1.10
2022-08-04T06:53:47.962Z,1.20
2022-08-04T06:54:47.977Z,1.10
2022-08-04T06:55:47.937Z,0.70
2022-08-04T06:56:47.948Z,12.50
2022-08-04T06:57:47.971Z,7.60
2022-08-04T06:58:48.824Z,6.70
2022-08-04T06:59:47.913Z,6.70
2022-08-04T07:00:47.883Z,8.40
2022-08-04T07:01:48.001Z,25.30
2022-08-04T07:02:47.865Z,5.50
2022-08-04T07:03:50.664Z,28.10
2022-08-04T07:04:48.826Z,23.30
2022-08-04T07:05:47.872Z,28.30
2022-08-04T07:06:47.814Z,18.70
2022-08-04T07:07:57.472Z,13.00
2022-08-04T07:08:49.360Z,8.00
2022-08-04T07:09:47.807Z,9.60
2022-08-04T07:10:47.781Z,23.40
2022-08-04T07:11:47.778Z,8.00
2022-08-04T07:12:47.754Z,8.70
2022-08-04T07:13:47.761Z,9.20
2022-08-04T07:14:47.763Z,18.30
2022-08-04T07:15:47.814Z,21.30
2022-08-04T07:16:47.710Z,11.20
2022-08-04T07:17:49.641Z,18.60
2022-08-04T07:18:47.698Z,20.70
2022-08-04T07:19:47.780Z,14.50
2022-08-04T07:20:47.682Z,20.30
2022-08-04T07:22:16.263Z,10.30
2022-08-04T07:22:48.674Z,20.30
2022-08-04T07:23:47.675Z,17.70
2022-08-04T07:24:47.642Z,11.80
2022-08-04T07:26:00.191Z,16.50
2022-08-04T07:26:48.607Z,17.70
2022-08-04T07:27:49.346Z,5.60
2022-08-04T07:28:47.614Z,6.50
2022-08-04T07:29:47.588Z,8.40
2022-08-04T07:30:47.570Z,9.90
2022-08-04T07:31:47.557Z,6.80
2022-08-04T07:32:47.559Z,6.90
2022-08-04T07:33:48.372Z,11.30
2022-08-04T07:34:49.768Z,12.50
2022-08-04T07:36:05.661Z,7.20
2022-08-04T07:36:50.435Z,6.10
2022-08-04T07:37:47.503Z,6.10
2022-08-04T07:38:51.449Z,7.10
2022-08-04T07:39:48.450Z,6.20
2022-08-04T07:40:47.542Z,5.80
2022-08-04T07:41:49.005Z,6.30
2022-08-04T07:42:47.515Z,1.00
2022-08-04T07:43:47.438Z,1.20
2022-08-04T07:44:47.446Z,0.90
2022-08-04T07:45:47.420Z,1.30
2022-08-04T07:46:47.412Z,1.20
2022-08-04T07:48:05.064Z,1.50
2022-08-04T07:48:48.398Z,1.20
2022-08-04T07:49:55.975Z,0.60
2022-08-04T07:50:48.374Z,0.90
2022-08-04T07:51:47.636Z,1.00
2022-08-04T07:52:58.719Z,1.00
2022-08-04T07:53:53.900Z,1.10
2022-08-04T07:54:48.355Z,1.30
2022-08-04T07:55:47.471Z,1.10
2022-08-04T07:56:47.326Z,1.50
2022-08-04T07:57:47.803Z,1.50
2022-08-04T07:58:47.337Z,1.00
2022-08-04T07:59:50.221Z,1.20
2022-08-04T08:00:47.291Z,6.90
2022-08-04T08:01:47.280Z,1.40
2022-08-04T08:02:47.469Z,6.20
2022-08-04T08:03:47.399Z,5.60
2022-08-04T08:04:47.244Z,2.10
2022-08-04T08:06:16.799Z,0.60
2022-08-04T08:06:48.219Z,4.60
2022-08-04T08:07:50.036Z,5.70
2022-08-04T08:08:48.218Z,5.20
2022-08-04T08:09:47.195Z,6.50
2022-08-04T08:10:47.179Z,2.50
2022-08-04T08:12:38.379Z,1.60
2022-08-04T08:12:51.366Z,5.30
2022-08-04T08:13:47.175Z,6.50
2022-08-04T08:14:47.188Z,1.90
2022-08-04T08:15:54.918Z,1.80
2022-08-04T08:16:47.140Z,6.80
2022-08-04T08:17:58.322Z,3.10
2022-08-04T08:18:50.051Z,1.60
2022-08-04T08:19:47.100Z,1.40
2022-08-04T08:20:47.102Z,1.10
2022-08-04T08:21:59.372Z,1.50
2022-08-04T08:22:48.086Z,4.30
2022-08-04T08:23:47.059Z,3.70
2022-08-04T08:24:47.052Z,4.50
2022-08-04T08:25:47.042Z,4.50
2022-08-04T08:26:47.051Z,1.60
2022-08-04T08:27:56.357Z,1.60
2022-08-04T08:28:48.021Z,1.50
2022-08-04T08:29:47.237Z,1.60
2022-08-04T08:30:52.744Z,4.80
2022-08-04T08:31:56.236Z,4.80
2022-08-04T08:32:49.586Z,4.70
2022-08-04T08:33:46.971Z,4.50
2022-08-04T08:34:46.966Z,5.00
2022-08-04T08:35:49.941Z,4.30
2022-08-04T08:36:47.957Z,4.90
2022-08-04T08:37:46.936Z,1.60
2022-08-04T08:38:46.955Z,6.20
2022-08-04T08:39:47.028Z,2.50
2022-08-04T08:40:46.911Z,2.40
2022-08-04T08:41:46.916Z,1.80
2022-08-04T08:42:47.896Z,1.70
2022-08-04T08:44:05.669Z,1.40
2022-08-04T08:44:47.900Z,1.50
2022-08-04T08:45:46.882Z,1.90
2022-08-04T08:46:49.834Z,1.10
2022-08-04T08:48:04.647Z,1.70
2022-08-04T08:48:47.843Z,1.40
2022-08-04T08:50:00.575Z,1.40
2022-08-04T08:50:47.825Z,1.70
2022-08-04T08:51:47.649Z,1.50
2022-08-04T08:52:56.371Z,1.90
2022-08-04T08:53:47.814Z,4.90
2022-08-04T08:54:46.800Z,5.10
2022-08-04T08:55:46.779Z,1.30
2022-08-04T08:56:46.772Z,1.60
2022-08-04T08:57:59.748Z,3.40
2022-08-04T08:58:47.756Z,3.70
2022-08-04T08:59:46.764Z,4.10
2022-08-04T09:00:46.741Z,4.60
2022-08-04T09:01:46.865Z,4.40
2022-08-04T09:02:46.724Z,4.00
2022-08-04T09:03:46.731Z,4.60
2022-08-04T09:04:46.722Z,5.70
2022-08-04T09:05:46.708Z,5.30
2022-08-04T09:06:46.688Z,5.70
2022-08-04T09:07:46.684Z,5.20
2022-08-04T09:08:46.675Z,5.80
2022-08-04T09:09:46.679Z,5.70
2022-08-04T09:10:46.659Z,6.10
2022-08-04T09:11:46.646Z,5.80
2022-08-04T09:12:46.663Z,6.30
2022-08-04T09:13:46.637Z,1.90
2022-08-04T09:14:46.626Z,2.40
2022-08-04T09:15:48.132Z,2.40
2022-08-04T09:16:47.607Z,1.70
2022-08-04T09:17:46.601Z,1.80
2022-08-04T09:18:46.613Z,1.70
2022-08-04T09:19:46.608Z,2.00
2022-08-04T09:20:46.602Z,2.30
2022-08-04T09:21:46.632Z,2.30
2022-08-04T09:22:46.559Z,2.30
2022-08-04T09:23:46.572Z,6.60
2022-08-04T09:24:46.552Z,6.60
2022-08-04T09:25:46.547Z,5.10
2022-08-04T09:26:46.534Z,4.20
2022-08-04T09:27:46.517Z,4.50
2022-08-04T09:28:54.794Z,4.60
2022-08-04T09:29:47.514Z,4.10
2022-08-04T09:30:46.501Z,3.00
2022-08-04T09:31:51.597Z,3.60
2022-08-04T09:32:47.510Z,3.50
2022-08-04T09:33:46.471Z,3.60
2022-08-04T09:34:46.486Z,3.90
2022-08-04T09:35:47.455Z,4.00
2022-08-04T09:36:46.487Z,3.60
2022-08-04T09:37:46.939Z,4.10
2022-08-04T09:38:50.273Z,4.30
2022-08-04T09:39:52.104Z,4.00
2022-08-04T09:40:55.339Z,4.40
2022-08-04T09:41:49.391Z,4.30
2022-08-04T09:42:46.419Z,3.90
2022-08-04T09:43:57.026Z,4.00
2022-08-04T09:44:50.632Z,4.00
2022-08-04T09:45:47.377Z,4.10
2022-08-04T09:46:46.370Z,4.40
2022-08-04T09:47:46.377Z,4.70
2022-08-04T09:48:46.353Z,4.70
2022-08-04T09:49:46.347Z,5.20
2022-08-04T09:50:50.230Z,4.60
2022-08-04T09:51:57.999Z,4.00
2022-08-04T09:52:47.333Z,3.80
2022-08-04T09:53:46.329Z,4.00
2022-08-04T09:54:46.306Z,3.90
2022-08-04T09:55:53.610Z,4.20
2022-08-04T09:56:47.919Z,4.10
2022-08-04T09:57:46.371Z,4.40
2022-08-04T09:58:46.288Z,4.00
2022-08-04T09:59:46.266Z,3.80
2022-08-04T10:00:46.259Z,3.70
2022-08-04T10:01:46.256Z,3.10
2022-08-04T10:02:46.362Z,3.20
2022-08-04T10:03:46.292Z,2.80
2022-08-04T10:04:46.279Z,2.90
2022-08-04T10:05:46.232Z,3.10
2022-08-04T10:06:46.218Z,2.90
2022-08-04T10:08:15.043Z,3.50
2022-08-04T10:08:47.199Z,2.90
2022-08-04T10:09:46.192Z,2.60
2022-08-04T10:10:46.180Z,2.60
2022-08-04T10:11:55.697Z,2.60
2022-08-04T10:12:47.167Z,2.70
2022-08-04T10:13:46.154Z,2.70
2022-08-04T10:14:46.682Z,3.80
2022-08-04T10:15:46.148Z,3.30
2022-08-04T10:16:46.154Z,3.00
2022-08-04T10:17:52.679Z,3.40
2022-08-04T10:18:47.121Z,3.60
2022-08-04T10:19:46.113Z,3.70
2022-08-04T10:20:51.737Z,3.10
2022-08-04T10:21:50.763Z,3.50
2022-08-04T10:23:09.134Z,3.00
2022-08-04T10:23:56.264Z,3.10
2022-08-04T10:24:47.073Z,3.00
2022-08-04T10:26:05.966Z,3.20
2022-08-04T10:26:47.071Z,3.10
2022-08-04T10:27:46.049Z,3.60
2022-08-04T10:28:47.041Z,3.40
2022-08-04T10:29:46.034Z,3.40
2022-08-04T10:30:46.059Z,3.60
2022-08-04T10:31:46.035Z,3.30
2022-08-04T10:32:46.013Z,3.30
2022-08-04T10:33:46.003Z,3.50
2022-08-04T10:34:45.997Z,3.20
2022-08-04T10:35:45.988Z,3.10
2022-08-04T10:36:46.000Z,3.40
2022-08-04T10:37:59.955Z,3.30
2022-08-04T10:38:46.968Z,3.40
2022-08-04T10:39:45.992Z,3.00
2022-08-04T10:40:45.999Z,3.10
2022-08-04T10:41:45.946Z,3.30
2022-08-04T10:42:45.937Z,3.10
2022-08-04T10:43:45.962Z,2.90
2022-08-04T10:44:45.923Z,3.10
2022-08-04T10:45:45.926Z,2.90
2022-08-04T10:46:45.904Z,3.40
2022-08-04T10:47:49.013Z,3.20
2022-08-04T10:48:46.889Z,3.60
2022-08-04T10:49:45.882Z,4.00
2022-08-04T10:50:45.880Z,3.70
2022-08-04T10:51:57.385Z,3.40
2022-08-04T10:52:46.856Z,3.50
2022-08-04T10:53:45.848Z,3.40
2022-08-04T10:54:45.842Z,3.40
2022-08-04T10:56:07.019Z,3.10
2022-08-04T10:56:46.845Z,3.10
2022-08-04T10:57:45.817Z,3.30
2022-08-04T10:58:47.599Z,3.60
2022-08-04T10:59:45.806Z,3.40
2022-08-04T11:00:45.797Z,3.60
2022-08-04T11:01:50.950Z,3.20
2022-08-04T11:02:46.964Z,3.20
2022-08-04T11:03:45.783Z,3.10
2022-08-04T11:04:45.767Z,3.30
2022-08-04T11:05:45.758Z,3.20
2022-08-04T11:06:45.765Z,2.90
2022-08-04T11:07:45.743Z,2.90
2022-08-04T11:08:45.741Z,2.70
2022-08-04T11:09:45.738Z,2.80
2022-08-04T11:10:45.725Z,2.90
2022-08-04T11:12:00.171Z,2.70
2022-08-04T11:12:46.708Z,2.80
2022-08-04T11:13:47.159Z,2.70
2022-08-04T11:14:45.691Z,2.70
2022-08-04T11:15:45.945Z,2.70
2022-08-04T11:16:45.688Z,3.00
2022-08-04T11:17:45.684Z,3.20
2022-08-04T11:18:45.662Z,3.20
2022-08-04T11:19:48.821Z,3.20
2022-08-04T11:20:46.660Z,3.90
2022-08-04T11:21:45.635Z,3.90
2022-08-04T11:22:45.628Z,3.20
2022-08-04T11:23:45.634Z,3.20
2022-08-04T11:24:45.613Z,3.50
2022-08-04T11:25:49.736Z,3.90
2022-08-04T11:26:46.594Z,4.20
2022-08-04T11:27:45.601Z,3.90
2022-08-04T11:28:45.580Z,3.90
2022-08-04T11:29:45.588Z,4.40
2022-08-04T11:30:45.566Z,4.00
2022-08-04T11:31:51.179Z,3.50
2022-08-04T11:32:46.567Z,3.90
2022-08-04T11:33:45.541Z,4.00
2022-08-04T11:34:52.891Z,4.20
2022-08-04T11:35:46.535Z,4.00
2022-08-04T11:36:45.700Z,4.10
2022-08-04T11:37:45.509Z,4.10
2022-08-04T11:38:45.514Z,4.20
2022-08-04T11:39:46.624Z,3.70
2022-08-04T11:40:48.371Z,4.20
2022-08-04T11:41:46.473Z,4.00
2022-08-04T11:42:45.474Z,4.20
2022-08-04T11:44:01.415Z,3.90
2022-08-04T11:44:46.454Z,4.00
2022-08-04T11:45:45.449Z,3.80
2022-08-04T11:46:45.440Z,4.30
2022-08-04T11:47:45.498Z,3.70
2022-08-04T11:48:45.439Z,3.30
2022-08-04T11:49:57.340Z,3.20
2022-08-04T11:50:49.250Z,4.00
2022-08-04T11:51:46.403Z,3.00
2022-08-04T11:52:45.392Z,3.30
2022-08-04T11:53:45.551Z,3.10
2022-08-04T11:54:45.429Z,3.20
2022-08-04T11:56:06.942Z,3.70
2022-08-04T11:56:46.378Z,3.20
2022-08-04T11:57:45.360Z,3.10
2022-08-04T11:58:50.265Z,2.90
2022-08-04T11:59:45.337Z,2.60
2022-08-04T12:00:45.336Z,2.20
2022-08-04T12:01:45.389Z,2.60
2022-08-04T12:02:45.395Z,2.60
2022-08-04T12:03:45.407Z,2.40
2022-08-04T12:04:46.319Z,2.60
2022-08-04T12:05:45.314Z,3.00
2022-08-04T12:06:56.927Z,3.30
2022-08-04T12:07:46.604Z,3.80
2022-08-04T12:08:45.264Z,3.50
2022-08-04T12:09:45.274Z,3.70
2022-08-04T12:10:45.255Z,3.50
2022-08-04T12:11:45.237Z,4.20
2022-08-04T12:12:45.285Z,3.70
2022-08-04T12:13:45.221Z,3.30
2022-08-04T12:14:45.232Z,3.30
2022-08-04T12:15:45.209Z,3.50
2022-08-04T12:16:45.199Z,3.40
2022-08-04T12:17:53.372Z,4.50
2022-08-04T12:18:46.186Z,4.30
2022-08-04T12:19:52.141Z,3.30
2022-08-04T12:20:46.184Z,4.20
2022-08-04T12:21:50.457Z,4.40
2022-08-04T12:22:46.150Z,3.70
2022-08-04T12:23:45.141Z,4.30
2022-08-04T12:24:45.134Z,4.60
2022-08-04T12:25:45.420Z,4.10
2022-08-04T12:26:45.121Z,5.20
2022-08-04T12:27:45.108Z,4.60
2022-08-04T12:29:11.866Z,5.40
2022-08-04T12:30:59.210Z,5.50
2022-08-04T12:31:01.566Z,5.70
2022-08-04T12:31:46.073Z,7.20
2022-08-04T12:32:48.367Z,5.80
2022-08-04T12:34:04.784Z,6.20
2022-08-04T12:34:46.054Z,6.30
2022-08-04T12:36:10.317Z,6.70
2022-08-04T12:36:46.050Z,7.00
2022-08-04T12:37:45.023Z,7.10
2022-08-04T12:38:45.012Z,6.60
2022-08-04T12:40:29.814Z,6.70
2022-08-04T12:40:45.996Z,6.50
2022-08-04T12:41:45.006Z,6.10
2022-08-04T12:42:56.367Z,6.70
2022-08-04T12:43:45.974Z,7.90
2022-08-04T12:44:45.084Z,7.20
2022-08-04T12:45:44.964Z,7.20
2022-08-04T12:46:44.965Z,7.60
2022-08-04T12:47:44.940Z,7.30
2022-08-04T12:48:45.183Z,8.10
2022-08-04T12:49:47.532Z,7.70
2022-08-04T12:50:45.913Z,6.90
2022-08-04T12:52:08.066Z,7.20
2022-08-04T12:53:03.106Z,6.10
2022-08-04T12:53:51.228Z,5.70
2022-08-04T12:54:45.918Z,6.70
2022-08-04T12:55:44.871Z,6.70
2022-08-04T12:56:45.872Z,6.40
2022-08-04T12:57:44.852Z,6.00
2022-08-04T12:58:44.848Z,5.80
2022-08-04T12:59:44.834Z,5.50
2022-08-04T13:00:44.868Z,5.80
2022-08-04T13:02:08.058Z,5.80
2022-08-04T13:02:45.840Z,6.00
2022-08-04T13:03:44.801Z,6.30
2022-08-04T13:04:51.297Z,7.20
2022-08-04T13:05:45.784Z,6.20
2022-08-04T13:06:44.775Z,5.80
2022-08-04T13:07:44.781Z,6.50
2022-08-04T13:08:44.758Z,6.80
2022-08-04T13:09:44.745Z,1.30
2022-08-04T13:10:44.740Z,0.70
2022-08-04T13:11:44.742Z,1.20
2022-08-04T13:12:44.718Z,0.60
2022-08-04T13:13:44.714Z,1.00
2022-08-04T13:14:44.706Z,1.40
2022-08-04T13:15:47.547Z,1.60
2022-08-04T13:16:46.505Z,1.20
2022-08-04T13:17:44.735Z,1.00